createdAt,value
2022-09-01T00:00:13.412Z,14.37
2022-09-01T00:03:01.458Z,14.34
2022-09-01T00:05:30.196Z,14.32
2022-09-01T00:07:58.859Z,14.30
2022-09-01T00:10:28.081Z,14.27
2022-09-01T00:12:56.137Z,14.25
2022-09-01T00:15:25.779Z,14.23
2022-09-01T00:17:55.094Z,14.21
2022-09-01T00:20:24.210Z,14.19
2022-09-01T00:22:52.724Z,14.16
2022-09-01T00:25:21.268Z,14.14
2022-09-01T00:27:49.860Z,14.12
2022-09-01T00:30:21.625Z,14.11
2022-09-01T00:32:49.538Z,14.08
2022-09-01T00:35:19.897Z,14.05
2022-09-01T00:37:50.013Z,14.02
2022-09-01T00:40:18.441Z,13.99
2022-09-01T00:42:49.094Z,13.96
2022-09-01T00:45:20.411Z,13.95
2022-09-01T00:47:50.487Z,13.94
2022-09-01T00:50:20.293Z,13.94
2022-09-01T00:52:51.701Z,13.94
2022-09-01T00:55:27.074Z,13.94
2022-09-01T00:57:56.304Z,13.94
2022-09-01T01:00:30.621Z,13.93
2022-09-01T01:03:02.290Z,13.93
2022-09-01T01:05:35.404Z,13.92
2022-09-01T01:08:04.769Z,13.91
2022-09-01T01:10:37.751Z,13.90
2022-09-01T01:13:14.045Z,13.89
2022-09-01T01:15:45.323Z,13.87
2022-09-01T01:18:16.972Z,13.85
2022-09-01T01:21:48.457Z,13.83
2022-09-01T01:24:33.122Z,13.80
2022-09-01T01:27:02.094Z,13.78
2022-09-01T01:29:36.750Z,13.77
2022-09-01T01:32:13.466Z,13.75
2022-09-01T01:34:43.647Z,13.73
2022-09-01T01:37:14.518Z,13.71
2022-09-01T01:39:45.017Z,13.69
2022-09-01T01:42:16.917Z,13.67
2022-09-01T01:44:44.937Z,13.66
2022-09-01T01:47:13.912Z,13.64
2022-09-01T01:49:45.179Z,13.60
2022-09-01T01:52:17.460Z,13.57
2022-09-01T01:54:47.748Z,13.55
2022-09-01T01:57:17.434Z,13.53
2022-09-01T01:59:45.710Z,13.50
2022-09-01T02:02:13.958Z,13.49
2022-09-01T02:04:44.730Z,13.47
2022-09-01T02:07:14.250Z,13.45
2022-09-01T02:09:46.565Z,13.43
2022-09-01T02:12:19.780Z,13.41
2022-09-01T02:14:48.713Z,13.38
2022-09-01T02:17:17.628Z,13.36
2022-09-01T02:19:47.561Z,13.32
2022-09-01T02:22:15.561Z,13.27
2022-09-01T02:24:49.299Z,13.25
2022-09-01T02:27:22.117Z,13.20
2022-09-01T02:29:52.235Z,13.18
2022-09-01T02:32:22.280Z,13.19
2022-09-01T02:34:54.814Z,13.21
2022-09-01T02:37:25.607Z,13.22
2022-09-01T02:39:57.005Z,13.23
2022-09-01T02:42:30.369Z,13.24
2022-09-01T02:45:00.147Z,13.24
2022-09-01T02:47:32.709Z,13.24
2022-09-01T02:50:04.133Z,13.24
2022-09-01T02:52:37.757Z,13.24
2022-09-01T02:55:06.957Z,13.25
2022-09-01T02:57:38.231Z,13.24
2022-09-01T03:00:20.952Z,13.23
2022-09-01T03:02:52.923Z,13.23
2022-09-01T03:05:27.312Z,13.23
2022-09-01T03:08:00.550Z,13.25
2022-09-01T03:10:32.901Z,13.26
2022-09-01T03:13:06.788Z,13.26
2022-09-01T03:15:36.718Z,13.26
2022-09-01T03:18:07.357Z,13.29
2022-09-01T03:20:39.695Z,13.31
2022-09-01T03:23:08.790Z,13.32
2022-09-01T03:25:39.768Z,13.34
2022-09-01T03:28:13.259Z,13.37
2022-09-01T03:30:51.020Z,13.40
2022-09-01T03:33:23.465Z,13.43
2022-09-01T03:35:52.887Z,13.47
2022-09-01T03:38:24.446Z,13.49
2022-09-01T03:41:02.280Z,13.50
2022-09-01T03:43:35.822Z,13.52
2022-09-01T03:46:05.500Z,13.53
2022-09-01T03:48:33.714Z,13.55
2022-09-01T03:51:04.103Z,13.55
2022-09-01T03:53:40.096Z,13.57
2022-09-01T03:56:09.260Z,13.58
2022-09-01T03:58:42.426Z,13.58
2022-09-01T04:01:13.783Z,13.59
2022-09-01T04:03:45.660Z,13.59
2022-09-01T04:06:15.345Z,13.62
2022-09-01T04:08:44.902Z,13.64
2022-09-01T04:11:23.717Z,13.68
2022-09-01T04:13:53.519Z,13.71
2022-09-01T04:16:44.348Z,13.73
2022-09-01T04:19:25.774Z,13.74
2022-09-01T04:21:57.766Z,13.77
2022-09-01T04:24:31.142Z,13.78
2022-09-01T04:27:04.018Z,13.81
2022-09-01T04:29:33.109Z,13.84
2022-09-01T04:32:07.189Z,13.85
2022-09-01T04:34:39.999Z,13.89
2022-09-01T04:37:15.157Z,13.92
2022-09-01T04:39:55.739Z,13.97
2022-09-01T04:42:27.513Z,14.01
2022-09-01T04:45:00.111Z,14.04
2022-09-01T04:47:35.918Z,14.09
2022-09-01T04:50:14.908Z,14.14
2022-09-01T04:53:07.015Z,14.18
2022-09-01T04:55:49.988Z,14.22
2022-09-01T04:58:20.981Z,14.26
2022-09-01T05:00:52.582Z,14.29
2022-09-01T05:03:24.238Z,14.33
2022-09-01T05:06:19.139Z,14.38
2022-09-01T05:08:59.642Z,14.44
2022-09-01T05:11:45.671Z,14.52
2022-09-01T05:14:26.220Z,14.60
2022-09-01T05:17:01.003Z,14.68
2022-09-01T05:19:30.245Z,14.77
2022-09-01T05:22:00.650Z,14.86
2022-09-01T05:24:30.563Z,15.00
2022-09-01T05:27:01.932Z,15.16
2022-09-01T05:29:38.113Z,15.28
2022-09-01T05:32:12.804Z,15.34
2022-09-01T05:34:44.079Z,15.42
2022-09-01T05:37:14.683Z,15.50
2022-09-01T05:39:46.215Z,15.56
2022-09-01T05:42:14.733Z,15.62
2022-09-01T05:44:44.399Z,15.70
2022-09-01T05:47:20.274Z,15.78
2022-09-01T05:49:53.911Z,15.87
2022-09-01T05:52:26.338Z,15.97
2022-09-01T05:54:56.983Z,16.07
2022-09-01T05:57:35.339Z,16.16
2022-09-01T06:00:13.548Z,16.26
2022-09-01T06:02:43.274Z,16.37
2022-09-01T06:05:16.200Z,16.46
2022-09-01T06:07:46.003Z,16.55
2022-09-01T06:10:16.310Z,16.62
2022-09-01T06:12:47.807Z,16.68
2022-09-01T06:15:18.756Z,16.74
2022-09-01T06:17:49.975Z,16.84
2022-09-01T06:20:19.093Z,16.92
2022-09-01T06:22:49.036Z,17.04
2022-09-01T06:25:18.785Z,17.20
2022-09-01T06:27:48.622Z,17.22
2022-09-01T06:30:24.141Z,17.17
2022-09-01T06:32:57.288Z,17.26
2022-09-01T06:35:29.721Z,17.42
2022-09-01T06:38:00.167Z,17.52
2022-09-01T06:40:42.449Z,17.59
2022-09-01T06:43:16.717Z,17.71
2022-09-01T06:45:55.259Z,17.89
2022-09-01T06:48:28.140Z,17.87
2022-09-01T06:51:21.947Z,17.81
2022-09-01T06:53:57.181Z,17.92
2022-09-01T06:56:32.089Z,17.73
2022-09-01T06:59:18.336Z,17.62
2022-09-01T07:04:57.728Z,17.92
2022-09-01T07:16:51.078Z,18.46
2022-09-01T07:19:20.923Z,18.79
2022-09-01T07:22:35.862Z,19.06
2022-09-01T07:28:15.849Z,20.00
2022-09-01T07:30:49.190Z,20.21
2022-09-01T07:33:44.273Z,20.29
2022-09-01T07:36:31.954Z,20.48
2022-09-01T07:39:57.367Z,17.68
2022-09-01T07:42:56.656Z,19.46
2022-09-01T07:45:59.577Z,20.35
2022-09-01T07:48:36.707Z,20.37
2022-09-01T07:51:42.352Z,20.43
2022-09-01T07:54:14.053Z,20.19
2022-09-01T07:56:42.846Z,20.07
2022-09-01T07:59:16.940Z,20.01
2022-09-01T08:02:12.110Z,20.20
2022-09-01T08:04:50.273Z,20.22
2022-09-01T08:07:20.929Z,20.16
2022-09-01T08:09:56.108Z,20.12
2022-09-01T08:12:29.659Z,20.06
2022-09-01T08:15:13.918Z,20.03
2022-09-01T08:17:51.589Z,20.04
2022-09-01T08:20:19.907Z,20.15
2022-09-01T08:22:54.311Z,20.28
2022-09-01T08:25:35.615Z,20.42
2022-09-01T08:28:10.107Z,20.63
2022-09-01T08:30:52.073Z,20.92
2022-09-01T08:33:27.165Z,21.04
2022-09-01T08:35:57.200Z,20.93
2022-09-01T08:38:27.082Z,20.90
2022-09-01T08:40:57.834Z,20.86
2022-09-01T08:44:08.380Z,20.79
2022-09-01T08:46:41.467Z,20.78
2022-09-01T08:49:27.720Z,20.56
2022-09-01T08:52:41.369Z,20.07
2022-09-01T08:55:29.019Z,19.83
2022-09-01T08:58:00.835Z,19.84
2022-09-01T09:00:48.283Z,19.86
2022-09-01T09:03:48.002Z,19.94
2022-09-01T09:06:38.764Z,19.90
2022-09-01T09:09:09.291Z,20.08
2022-09-01T09:12:05.477Z,20.19
2022-09-01T09:15:15.250Z,20.28
2022-09-01T09:17:54.791Z,20.43
2022-09-01T09:20:29.185Z,20.68
2022-09-01T09:22:59.777Z,20.95
2022-09-01T09:25:29.846Z,21.15
2022-09-01T09:28:03.071Z,21.34
2022-09-01T09:30:38.435Z,21.36
2022-09-01T09:33:51.374Z,21.56
2022-09-01T09:36:53.834Z,21.88
2022-09-01T09:39:29.515Z,21.96
2022-09-01T09:42:21.179Z,21.93
2022-09-01T09:44:57.654Z,21.74
2022-09-01T09:47:45.156Z,21.54
2022-09-01T09:50:35.638Z,21.40
2022-09-01T09:53:40.280Z,21.45
2022-09-01T09:56:26.211Z,21.64
2022-09-01T09:59:00.335Z,21.77
2022-09-01T10:01:57.194Z,21.87
2022-09-01T10:04:39.056Z,21.90
2022-09-01T10:07:28.833Z,22.01
2022-09-01T10:10:01.150Z,22.28
2022-09-01T10:12:31.257Z,22.46
2022-09-01T10:15:07.075Z,22.56
2022-09-01T10:18:19.634Z,22.58
2022-09-01T10:21:10.560Z,22.36
2022-09-01T10:23:45.017Z,22.13
2022-09-01T10:26:23.835Z,22.06
2022-09-01T10:28:57.743Z,22.02
2022-09-01T10:31:32.869Z,21.92
2022-09-01T10:34:05.491Z,21.72
2022-09-01T10:36:37.765Z,21.49
2022-09-01T10:39:11.627Z,21.38
2022-09-01T10:42:07.588Z,21.26
2022-09-01T10:44:57.731Z,21.06
2022-09-01T10:47:34.188Z,20.97
2022-09-01T10:50:35.505Z,20.97
2022-09-01T10:53:06.552Z,21.04
2022-09-01T10:55:44.205Z,20.99
2022-09-01T11:01:49.296Z,20.97
2022-09-01T11:04:42.532Z,21.01
2022-09-01T11:07:29.829Z,20.97
2022-09-01T11:10:39.803Z,20.95
2022-09-01T11:13:50.027Z,20.82
2022-09-01T11:16:48.012Z,20.81
2022-09-01T11:19:37.942Z,20.85
2022-09-01T11:22:26.472Z,20.78
2022-09-01T11:25:41.503Z,20.75
2022-09-01T11:28:37.562Z,20.57
2022-09-01T11:31:21.753Z,20.45
2022-09-01T11:34:00.885Z,20.31
2022-09-01T11:36:48.208Z,20.08
2022-09-01T11:39:31.527Z,19.83
2022-09-01T11:42:34.919Z,19.66
2022-09-01T11:45:24.934Z,19.57
2022-09-01T11:47:56.525Z,19.49
2022-09-01T11:50:38.957Z,19.40
2022-09-01T11:53:23.106Z,19.30
2022-09-01T11:55:53.227Z,19.21
2022-09-01T11:58:39.551Z,19.18
2022-09-01T12:01:33.283Z,19.18
2022-09-01T12:04:24.005Z,19.18
2022-09-01T12:07:02.435Z,19.29
2022-09-01T12:09:42.034Z,19.29
2022-09-01T12:13:00.188Z,19.27
2022-09-01T12:15:29.115Z,19.20
2022-09-01T12:18:23.184Z,19.16
2022-09-01T12:21:16.390Z,19.13
2022-09-01T12:23:45.455Z,19.11
2022-09-01T12:26:18.341Z,19.02
2022-09-01T12:28:50.441Z,18.98
2022-09-01T12:31:24.452Z,19.04
2022-09-01T12:33:54.244Z,19.07
2022-09-01T12:36:27.285Z,19.13
2022-09-01T12:39:17.976Z,19.17
2022-09-01T12:42:01.136Z,19.32
2022-09-01T12:44:57.490Z,19.48
2022-09-01T12:47:34.504Z,19.64
2022-09-01T12:50:16.392Z,19.78
2022-09-01T12:52:52.927Z,19.83
2022-09-01T12:58:25.858Z,19.85
2022-09-01T13:00:55.888Z,19.89
2022-09-01T13:03:24.147Z,19.97
2022-09-01T13:06:00.210Z,20.12
2022-09-01T13:08:33.323Z,20.34
2022-09-01T13:11:09.115Z,20.46
2022-09-01T13:13:39.323Z,20.47
2022-09-01T13:16:14.697Z,20.42
2022-09-01T13:21:35.855Z,20.21
2022-09-01T13:24:07.208Z,20.22
2022-09-01T13:26:35.300Z,20.32
2022-09-01T13:29:03.727Z,20.25
2022-09-01T13:31:32.260Z,20.24
2022-09-01T13:34:20.659Z,20.22
2022-09-01T13:36:52.025Z,20.24
2022-09-01T13:39:21.321Z,20.26
2022-09-01T13:41:49.601Z,20.39
2022-09-01T13:44:18.721Z,20.51
2022-09-01T13:49:43.686Z,20.69
2022-09-01T13:52:13.322Z,20.78
2022-09-01T13:54:42.229Z,20.89
2022-09-01T13:57:12.386Z,20.95
2022-09-01T13:59:42.071Z,20.99
2022-09-01T14:02:11.145Z,21.13
2022-09-01T14:04:42.474Z,21.25
2022-09-01T14:07:10.317Z,21.40
2022-09-01T14:09:39.334Z,21.55
2022-09-01T14:12:07.830Z,21.64
2022-09-01T14:17:26.830Z,21.97
2022-09-01T14:19:55.480Z,21.99
2022-09-01T14:22:23.404Z,21.87
2022-09-01T14:24:51.280Z,21.86
2022-09-01T14:27:20.380Z,21.91
2022-09-01T14:29:55.120Z,21.79
2022-09-01T14:32:27.287Z,21.57
2022-09-01T14:35:00.872Z,21.45
2022-09-01T14:37:29.311Z,21.34
2022-09-01T14:40:00.502Z,21.11
2022-09-01T14:42:31.923Z,20.93
2022-09-01T14:45:02.157Z,20.93
2022-09-01T14:47:30.941Z,21.04
2022-09-01T14:49:58.942Z,21.13
2022-09-01T14:52:27.497Z,21.14
2022-09-01T14:54:56.014Z,21.12
2022-09-01T14:57:37.459Z,21.13
2022-09-01T15:00:12.291Z,21.14
2022-09-01T15:02:41.525Z,21.22
2022-09-01T15:05:11.083Z,21.18
2022-09-01T15:07:41.997Z,21.00
2022-09-01T15:10:15.877Z,20.74
2022-09-01T15:12:46.105Z,20.51
2022-09-01T15:15:14.170Z,20.36
2022-09-01T15:17:44.632Z,20.26
2022-09-01T15:20:34.551Z,20.13
2022-09-01T15:23:06.740Z,20.01
2022-09-01T15:25:39.670Z,19.92
2022-09-01T15:28:07.851Z,19.80
2022-09-01T15:30:37.237Z,19.67
2022-09-01T15:33:06.542Z,19.58
2022-09-01T15:35:34.472Z,19.50
2022-09-01T15:38:04.721Z,19.51
2022-09-01T15:40:33.567Z,19.54
2022-09-01T15:43:08.120Z,19.60
2022-09-01T15:45:36.558Z,19.59
2022-09-01T15:48:07.609Z,19.62
2022-09-01T15:50:36.606Z,19.84
2022-09-01T15:53:13.315Z,19.95
2022-09-01T15:55:46.829Z,19.91
2022-09-01T15:58:19.052Z,20.06
2022-09-01T16:00:47.517Z,20.26
2022-09-01T16:03:16.351Z,20.30
2022-09-01T16:05:47.386Z,20.29
2022-09-01T16:08:15.289Z,20.30
2022-09-01T16:10:43.190Z,20.44
2022-09-01T16:13:14.164Z,20.40
2022-09-01T16:15:48.515Z,20.20
2022-09-01T16:18:59.613Z,20.11
2022-09-01T16:21:48.179Z,20.01
2022-09-01T16:24:16.575Z,20.03
2022-09-01T16:26:48.445Z,20.13
2022-09-01T16:29:48.692Z,20.04
2022-09-01T16:32:17.128Z,19.87
2022-09-01T16:34:48.432Z,19.78
2022-09-01T16:37:53.745Z,19.71
2022-09-01T16:40:31.208Z,19.62
2022-09-01T16:43:24.815Z,19.55
2022-09-01T16:46:23.527Z,19.46
2022-09-01T16:49:18.258Z,19.38
2022-09-01T16:52:05.669Z,19.32
2022-09-01T16:55:15.701Z,19.26
2022-09-01T16:57:54.157Z,19.19
2022-09-01T17:00:37.206Z,19.12
2022-09-01T17:03:42.484Z,19.06
2022-09-01T17:06:32.095Z,19.00
2022-09-01T17:09:25.118Z,18.92
2022-09-01T17:12:02.670Z,18.79
2022-09-01T17:14:40.559Z,18.70
2022-09-01T17:17:18.163Z,18.64
2022-09-01T17:19:54.563Z,18.53
2022-09-01T17:22:25.834Z,18.39
2022-09-01T17:25:18.819Z,18.28
2022-09-01T17:28:29.905Z,18.13
2022-09-01T17:31:30.450Z,17.98
2022-09-01T17:34:28.735Z,17.83
2022-09-01T17:37:18.014Z,17.71
2022-09-01T17:40:18.922Z,17.63
2022-09-01T17:43:26.125Z,17.53
2022-09-01T17:47:01.949Z,17.42
2022-09-01T17:49:50.621Z,17.32
2022-09-01T17:52:57.961Z,17.23
2022-09-01T17:56:06.509Z,17.12
2022-09-01T17:59:01.926Z,17.01
2022-09-01T18:01:48.956Z,16.92
2022-09-01T18:05:03.093Z,16.83
2022-09-01T18:08:01.254Z,16.74
2022-09-01T18:11:00.476Z,16.66
2022-09-01T18:14:03.729Z,16.56
2022-09-01T18:16:39.238Z,16.47
2022-09-01T18:19:16.929Z,16.41
2022-09-01T18:22:03.689Z,16.35
2022-09-01T18:24:51.408Z,16.28
2022-09-01T18:27:20.995Z,16.22
2022-09-01T18:29:57.128Z,16.15
2022-09-01T18:32:49.684Z,16.09
2022-09-01T18:35:36.319Z,16.01
2022-09-01T18:38:13.195Z,15.96
2022-09-01T18:40:56.987Z,15.91
2022-09-01T18:44:13.356Z,15.87
2022-09-01T18:47:01.319Z,15.90
2022-09-01T18:49:54.207Z,15.89
2022-09-01T18:52:52.773Z,15.82
2022-09-01T18:55:43.279Z,15.77
2022-09-01T18:58:51.053Z,15.73
2022-09-01T19:01:51.617Z,15.68
2022-09-01T19:04:33.889Z,15.65
2022-09-01T19:07:42.952Z,15.60
2022-09-01T19:10:22.378Z,15.52
2022-09-01T19:13:08.942Z,15.44
2022-09-01T19:15:46.188Z,15.36
2022-09-01T19:18:23.877Z,15.25
2022-09-01T19:20:57.788Z,15.14
2022-09-01T19:23:50.719Z,15.05
2022-09-01T19:26:22.814Z,14.95
2022-09-01T19:28:57.309Z,14.87
2022-09-01T19:31:35.736Z,14.80
2022-09-01T19:34:10.964Z,14.74
2022-09-01T19:36:46.735Z,14.69
2022-09-01T19:39:25.384Z,14.64
2022-09-01T19:42:08.623Z,14.60
2022-09-01T19:44:55.478Z,14.55
2022-09-01T19:47:51.474Z,14.50
2022-09-01T19:50:32.903Z,14.44
2022-09-01T19:53:07.591Z,14.39
2022-09-01T19:56:14.178Z,14.35
2022-09-01T19:58:48.407Z,14.30
2022-09-01T20:01:21.227Z,14.26
2022-09-01T20:03:55.430Z,14.20
2022-09-01T20:06:35.484Z,14.16
2022-09-01T20:09:17.766Z,14.11
2022-09-01T20:12:04.627Z,14.05
2022-09-01T20:14:49.597Z,14.01
2022-09-01T20:17:31.546Z,13.96
2022-09-01T20:20:31.079Z,13.91
2022-09-01T20:23:11.007Z,13.86
2022-09-01T20:25:49.186Z,13.82
2022-09-01T20:28:34.911Z,13.78
2022-09-01T20:31:12.525Z,13.74
2022-09-01T20:34:11.074Z,13.71
2022-09-01T20:36:50.754Z,13.66
2022-09-01T20:39:58.707Z,13.62
2022-09-01T20:43:20.885Z,13.56
2022-09-01T20:45:50.022Z,13.51
2022-09-01T20:48:27.690Z,13.48
2022-09-01T20:51:27.531Z,13.44
2022-09-01T20:54:12.088Z,13.37
2022-09-01T20:57:06.725Z,13.33
2022-09-01T20:59:39.657Z,13.29
2022-09-01T21:02:23.934Z,13.25
2022-09-01T21:05:04.992Z,13.22
2022-09-01T21:08:08.421Z,13.19
2022-09-01T21:10:43.422Z,13.17
2022-09-01T21:13:27.811Z,13.16
2022-09-01T21:16:08.939Z,13.16
2022-09-01T21:19:04.058Z,13.15
2022-09-01T21:21:56.867Z,13.14
2022-09-01T21:24:24.702Z,13.13
2022-09-01T21:26:57.833Z,13.11
2022-09-01T21:29:32.093Z,13.10
2022-09-01T21:32:07.838Z,13.09
2022-09-01T21:34:36.718Z,13.08
2022-09-01T21:37:05.447Z,13.06
2022-09-01T21:39:33.294Z,13.04
2022-09-01T21:42:02.630Z,13.01
2022-09-01T21:44:30.483Z,12.98
2022-09-01T21:46:58.474Z,12.95
2022-09-01T21:49:26.300Z,12.92
2022-09-01T21:52:00.260Z,12.89
2022-09-01T21:54:28.769Z,12.87
2022-09-01T21:56:56.679Z,12.82
2022-09-01T21:59:24.525Z,12.76
2022-09-01T22:01:52.689Z,12.72
2022-09-01T22:04:21.221Z,12.68
2022-09-01T22:06:49.373Z,12.65
2022-09-01T22:09:20.587Z,12.61
2022-09-01T22:11:51.881Z,12.57
2022-09-01T22:14:21.865Z,12.53
2022-09-01T22:16:50.343Z,12.49
2022-09-01T22:19:20.198Z,12.45
2022-09-01T22:21:48.259Z,12.42
2022-09-01T22:24:20.045Z,12.38
2022-09-01T22:26:50.368Z,12.32
2022-09-01T22:29:20.959Z,12.29
2022-09-01T22:31:48.994Z,12.27
2022-09-01T22:34:16.871Z,12.23
2022-09-01T22:36:47.503Z,12.20
2022-09-01T22:39:25.150Z,12.16
2022-09-01T22:41:53.837Z,12.13
2022-09-01T22:44:23.450Z,12.09
2022-09-01T22:46:52.081Z,12.05
2022-09-01T22:49:23.163Z,12.02
2022-09-01T22:51:53.797Z,11.98
2022-09-01T22:54:21.711Z,11.95
2022-09-01T22:56:50.003Z,11.92
2022-09-01T22:59:21.084Z,11.89
2022-09-01T23:01:51.955Z,11.88
2022-09-01T23:04:20.007Z,11.85
2022-09-01T23:06:53.183Z,11.83
2022-09-01T23:09:21.686Z,11.82
2022-09-01T23:11:50.611Z,11.80
2022-09-01T23:14:18.727Z,11.78
2022-09-01T23:16:47.523Z,11.76
2022-09-01T23:19:21.938Z,11.74
2022-09-01T23:21:52.313Z,11.73
2022-09-01T23:24:21.537Z,11.73
2022-09-01T23:26:51.237Z,11.71
2022-09-01T23:29:20.249Z,11.71
2022-09-01T23:31:48.603Z,11.68
2022-09-01T23:34:16.728Z,11.66
2022-09-01T23:36:45.167Z,11.65
2022-09-01T23:39:13.056Z,11.63
2022-09-01T23:41:41.625Z,11.61
2022-09-01T23:44:13.018Z,11.59
2022-09-01T23:46:44.377Z,11.57
2022-09-01T23:49:15.162Z,11.54
2022-09-01T23:51:44.325Z,11.51
2022-09-01T23:54:15.459Z,11.47
2022-09-01T23:56:44.597Z,11.44
2022-09-01T23:59:13.825Z,11.41
